Accueil
METAR-TAF:

METAR-TAF

Aéroports :

Malatya, Turquie

latitude: 38-26N, longitude: 038-05E, altitude: 862 m

Observation

Le bulletin a été fait il y a 46 minutes, à 09:50 UTC
Vent 6 kt de est/nord-est, variant entre nord/nord-est et sud/sud-est
Température 35°C
Humidité 17%
Pression 1010 hPa
Visibilité 10 km ou plus
pas de nuages en-dessous de 1500 mètres et pas de cumulonimbus.

METAR: LTAT 160950Z 07006KT 020V150 CAVOK 35/06 Q1010 NOSIG RMK RWY03 VRB02KT

Heure: 13:36 (10:36 UTC)

Prévision

Le bulletin a été fait il y a 5 heures et 56 minutes, à 04:40 UTC
Prévision valable du 16 à 06 UTC au 17 à 06 UTC
Vent 2 kt de direction variable
Visibilité 10 km ou plus
pas de nuages en-dessous de 1500 mètres et pas de cumulonimbus.

TAF: LTAT 160440Z 1606/1706 VRB02KT CAVOK

Observations et prévisions météorologiques de plus de 4000 aéroports (messages METAR et TAF).

Les stations disponibles sont représentées par des disques jaunes et rouges sur la carte.

Passer la souris dessus pour voir le nom de la station.

Cliquer dessus pour voir les observations et prévisions météorologiques.

Pour changer de carte: cliquez sur les boutons verts avec une croix noire pour zoomer, sur le bouton vert avec un tiret pour effectuer un zoom arrière, ou sur les flèches vertes pour les cartes adjacentes.


METAR-TAF: